Results- 2015 End to End

 

2015 End to End Results

Below are the results from the 2015 End to End Race.

  • Vernon to Kelowna, 
  • Kelowna to Summerland,  and
  • Overall results from Vernon to Summerland

The overall winner of this two day event and the winner of the End to End Trophy for 2015 was Shadowfax skippered by Kelowna Yacht Club sailor Danny Foster. Shadowfax sailed the 38.05 nautical mile course over two days in a PHRF corrected time of 8 hrs, 17 minutes, and 7 seconds.

Vernon to Kelowna, Sept 19

Fleet Boat Name Skipper Boat PHRF Club affiliation Distance (NM) Time Raced PHRF Corrected Speed nm/hr Position
                   
Fleet 1 Saint Vitus Dance Andy McGregor Andrews 143 SYC 17.91 04:00:56 5.42 1
1 Moonraker Grant Hardisty Antrim 28 92 KYC 17.91 03:46:07 5.409 2
1 Predator Paul Jollymore Capri 30 119 KYC 17.91 03:59:39 5.264 3
1 Woo Hoo Liz Balderston Laser 28 150 KYC 17.91 04:07:03 5.243 4
1 Wicked Mark Saar Rocket 22 119 Ghost Lake Marina 17.91 04:07:47 5.063 5
1 Quintessence Gerard Obbema Dehler 29 141 SYC 17.91 04:23:58 4.883 6
1 Nereyda Elton Ash Beneteau 32s5 140 KYC 17.91 04:37:24 4.561 7
1 Tadpole Don Cavers Dix Mini 114 TCYC 17.91 05:49:01 3.412 8
1 Sugar Mountain Mike Thomas Beneteau 321 140 VYC 17.91 06:55:30 2.875 9
                   
Fleet 2 Shadowfax Danny Foster Hotfoot 27 152 KYC 17.91 04:12:38 5.185 1
2 Blowin’ in the Wind Don Smith S2 7.9 176 PYC 17.91 04:21:22 5.146 2
2 Tangerine John Sharples Santa Cruz 27 158 KYC 17.91 04:18:22 5.088 3
2 Feng Shui Craig Tilson Erickson 35 164 PYC 17.91 04:25:13 4.969 4
2 Animal Crackers John Preston Evelyn 25 160 KYC 17.91 05:09:37 4.104 5
2 Dragonfly Keith Danielson Beneteau 323 180 VYC 17.91 05:32:45 3.851 6
2 Colgate 26 Murray Ramsden Colgate 26 165 KYC 17.91 05:38:29 3.715 7
2 Frivol’o Edgar Beckley Kirie Elite 326 180 SYC 17.91 08:03:54 2.498 8
                   
Fleet 3  Wildfire Harvey Ryll Viking 28 205 PYC 17.91 04:26:57 5.223 1
3 NoGoSloGo Siebe Kamstra Santana 525 195 KYC 17.91 04:36:42 4.938 2
3 Margarita James Anderson Santana 525 195 KYC 17.91 04:38:46 4.872 3
3 Razzle Dazzle Alan Barnes Santana 525 195 KYC 17.91 04:38:47 4.872 4
3 Contagious Gillian Thomson Santana 525 195 KYC 17.91 04:41:54 4.804 5
3 Freedom Doug Rutherford US 25 238 KYC 17.91 05:43:33 3.943 6
3 Juana Be Tony Mattheys San Juan 21 260 Glenmore Sailing Club 17.91 06:55:58 3.154 7
3 Fyfe II Craig Williams Mirage 27 237 VYC 17.91 07:03:58 3.042 8
3 Laguna John Drayton Laguna 5.5 289 Kamloops Sailing Assoc. 15.74 08:00:00 2.337 9
3 Imagine Rene Hantelmann Freedom 25 207 KYC 16:45 08:00:00 2.332 10

Kelowna to Summerland, Sept 20

Fleet Boat Name Skipper Boat phrf Club affiliation Distance (NM) Time Raced PHRF Corrected Speed nm/hr Position
                   
Fleet 1 Woo Hoo Liz Balderston Laser 28 150 KYC 20.14 05:59:03 3.877 1
1 Quintessence Gerard Obbema Dehler 29 141 SYC 20.14 06:03:07 3.851 2
1 Wicked Mark Saar Rocket 22 119 Ghost Lake Marina 20.14 05:53:47 3.85 3
1 Moonraker Grant Hardisty Antrim 28 92 KYC 20.14 05:55:47 3.719 4
1 Saint Vitus Dance Andy McGregor Andrews 143 SYC 20.14 06:14:49 3.697 5
1 Predator Paul Jollymore Capri 30 119 KYC 20.14 06:09:07 3.671 6
1 Nereyda Elton Ash Beneteau 32s5 140 KYC 20.14 07:00:21 3.237 7
1 Tadpole Don Cavers Dix Mini 114 TCYC 0 08:00:00 0 8
1 Sugar Mountain Mike Thomas Beneteau 321 140 VYC 0 08:00:00 0 9
                   
Fleet 2 Shadowfax Danny Foster Hotfoot 27 152 KYC 20.14 05:40:53 4.169 1
2 Tangerine John Sharples Santa Cruz 27 158 KYC 20.14 06:09:28 3.819 2
2 Colgate 26 Murray Ramsden Colgate 26 165 KYC 20.14 07:49:37 2.917 3
2 Frivol’o Edgar Beckley Kirie Elite 326 180 SYC 15.75 08:00:00 2.184 4
2 Blowin’ in the Wind Don Smith S2 7.9 176 PYC 10.3 08:00:00 1.374 5
2 Dragonfly Keith Danielson Beneteau 323 180 VYC 6.3 08:00:00 0.820 6
2 Feng Shui Craig Tilson Erickson 35 164 PYC 0 08:00:00 0.000 7
2 Animal Crackers John Preston Evelyn 25 160 KYC 0 08:00:00 0.000 7
                   
Fleet 3 NoGoSloGo Siebe Kamstra Santana 525 195 KYC 20.14 06:03:02 4.075 1
3 Wildfire Harvey Ryll Viking 28 205 PYC 20.14 06:29:08 3.772 2
3 Freedom Doug Rutherford US 25 238 KYC 20.14 07:55:54 3.051 3
3 Fyfe II Craig Williams Mirage 27 237 VYC 8.3 08:00:00 1.114 4
3 Juana Be Tony Mattheys San Juan 21 260 Glenmore Sailing Club 5.65 08:00:00 0.743 5
3 Imagine Rene Hantelmann Freedom 25 207 KYC 0.25 08:00:00 0.031 6
3 Margarita James Anderson Santana 525 195 KYC 0 08:00:00 0.000 7
3 Razzle Dazzle Alan Barnes Santana 525 195 KYC 0 08:00:00 0.000 7
3 Contagious Gillian Thomson Santana 525 195 KYC 0 08:00:00 0.000 7
3 Laguna John Drayton Laguna 5.5 289 Kamloops Sailing Assoc. 0 08:00:00 0.000 7

Overall results

Fleet Boat Name Skipper Boat PHRF Club affiliation Distance (NM) PHRF Corrected Speed nm/hr Position
                 
Fleet 1 Woo Hoo Liz Balderston Laser 28 150 KYC 38.05 4.419 1
1 Moonraker Grant Hardisty Antrim 28 92 KYC 38.05 4.361 2
1 Saint Vitus Dance Andy McGregor Andrews 143 SYC 38.05 4.348 3
1 Wicked Mark Saar Rocket 22 119 Ghost Lake Marina 38.05 4.339 4
1 Predator Paul Jollymore Capri 30 119 KYC 38.05 4.281 5
1 Quintessence Gerard Obbema Dehler 29 141 SYC 38.05 4.276 6
1 Nereyda Elton Ash Beneteau 32s5 140 KYC 38.05 3.749 7
1 Tadpole Don Cavers Dix Mini 114 TCYC 17.91 1.352 8
1 Sugar Mountain Mike Thomas Beneteau 321 140 VYC 17.91 1.258 9
                 
Fleet 2 Shadowfax Danny Foster Hotfoot 27 152 KYC 38.05 4.592 1
2 Tangerine Sharples / Edwards Santa Cruz 27 158 KYC 38.05 4.327 2
2 Colgate 26 Murray Ramsden Colgate 26 165 KYC 38.05 3.245 3
2 Blowin’ in the Wind Don Smith S2 7.9 176 PYC 28.21 2.570 4
2 Frivol’o Edgar Beckley Kirie Elite 326 180 SYC 33.66 2.340 5
2 Dragonfly Keith Danielson Beneteau 323 180 VYC 24.21 1.963 6
2 Feng Shui Craig Tilson Erickson 35 164 PYC 17.91 1.543 7
2 Animal Crackers John Preston Evelyn 25 160 KYC 17.91 1.449 8
                 
Fleet 3 NoGoSloGo Siebe Kamstra Santana 525 195 KYC 38.05 4.440 1
3 Wildfire Harvey Ryll Viking 28 205 PYC 38.05 4.340 2
3 Freedom Doug Rutherford US 25 238 KYC 38.05 3.415 3
3 Fyfe II Craig Williams Mirage 27 237 VYC 26.21 1.965 4
3 Juana Be Tony Mattheys San Juan 21 260 Glenmore Sailing Club 23.56 1.774 5
3 Margarita James Anderson Santana 525 195 KYC 17.91 1.534 6
3 Razzle Dazzle Alan Barnes Santana 525 195 KYC 17.91 1.534 7
3 Contagious Gillian Thomson Santana 525 195 KYC 17.91 1.527 8
3 Imagine Rene Hantelmann Freedom 25 207 KYC 16.7 1.110 9
3 Laguna John Drayton Laguna 5.5 289 Kamloops Sailing Assoc. 15.74 1.068 10